Time;durP1;ratioP1;P1;durP2;ratioP2;P2;SDS_P1;SDS_P2;PMS_P1;PMS_P2;Temp;Humidity;BMP_temperature;BMP_pressure;BME280_temperature;BME280_humidity;BME280_pressure;Samples;Min_cycle;Max_cycle;Signal;HPM_P1;HPM_P2
2022/08/28 00:00:18;;;;;;;6.97;3.63;;;13.40;99.90;;;;;;4991464;28;20042;-67
2022/08/28 00:02:48;;;;;;;10.85;4.13;;;13.40;99.90;;;;;;5008627;28;20046;-67
2022/08/28 00:05:16;;;;;;;10.55;3.90;;;13.30;99.90;;;;;;5012205;28;20085;-67
2022/08/28 00:07:41;;;;;;;12.30;4.28;;;13.20;99.90;;;;;;4991366;28;20045;-67
2022/08/28 00:10:10;;;;;;;7.95;4.20;;;13.20;99.90;;;;;;5012219;28;20037;-67
2022/08/28 00:12:37;;;;;;;8.18;3.83;;;13.20;99.90;;;;;;5008742;28;20038;-67
2022/08/28 00:15:08;;;;;;;11.38;3.90;;;13.10;99.90;;;;;;5009345;28;20044;-67
2022/08/28 00:17:35;;;;;;;10.03;3.97;;;13.10;99.90;;;;;;4990910;28;20168;-67
2022/08/28 00:20:01;;;;;;;7.50;3.78;;;13.00;99.90;;;;;;5013336;28;20049;-67
2022/08/28 00:22:27;;;;;;;8.63;3.78;;;13.00;99.90;;;;;;4978560;28;20496;-67
2022/08/28 00:24:53;;;;;;;9.15;3.78;;;12.90;99.90;;;;;;5018203;28;20038;-67
2022/08/28 00:30:03;;;;;;;11.88;3.78;;;12.80;99.90;;;;;;5028323;28;20041;-67
2022/08/28 00:32:29;;;;;;;8.05;3.55;;;12.80;99.90;;;;;;5019010;28;20046;-66
2022/08/28 00:34:55;;;;;;;7.70;3.45;;;12.80;99.90;;;;;;5014550;28;20060;-66
2022/08/28 00:37:21;;;;;;;8.85;3.58;;;12.90;99.90;;;;;;4994072;28;20128;-66
2022/08/28 00:39:48;;;;;;;10.68;4.00;;;12.90;99.90;;;;;;5015756;28;20038;-66
2022/08/28 00:42:17;;;;;;;8.73;3.25;;;12.90;99.90;;;;;;4992622;28;20054;-66
2022/08/28 00:44:44;;;;;;;10.02;3.80;;;12.80;99.90;;;;;;5019110;28;20057;-66
2022/08/28 00:47:10;;;;;;;8.75;4.13;;;12.90;99.90;;;;;;5009994;28;20092;-66
2022/08/28 00:49:45;;;;;;;7.18;3.90;;;12.90;99.90;;;;;;4996450;28;20034;-66
2022/08/28 00:52:14;;;;;;;11.65;3.83;;;12.90;99.90;;;;;;5011662;28;20325;-66
2022/08/28 00:54:47;;;;;;;9.10;3.40;;;12.80;99.90;;;;;;5013260;28;20121;-66
2022/08/28 00:57:18;;;;;;;8.02;3.97;;;12.80;99.90;;;;;;5011781;28;20503;-66
2022/08/28 00:59:44;;;;;;;10.32;3.65;;;12.80;99.90;;;;;;5014300;28;20737;-66
2022/08/28 01:02:10;;;;;;;9.70;3.67;;;12.80;99.90;;;;;;5008001;28;20379;-66
2022/08/28 01:04:37;;;;;;;6.28;3.92;;;12.70;99.90;;;;;;4987435;28;20061;-66
2022/08/28 01:07:07;;;;;;;7.43;3.72;;;12.70;99.90;;;;;;5011704;28;20605;-66
2022/08/28 01:09:35;;;;;;;10.75;3.67;;;12.70;99.90;;;;;;5012240;28;20037;-66
2022/08/28 01:12:07;;;;;;;9.27;4.38;;;12.70;99.90;;;;;;4992578;28;20062;-66
2022/08/28 01:14:36;;;;;;;11.70;4.40;;;12.70;99.90;;;;;;5019359;28;20037;-66
2022/08/28 01:17:03;;;;;;;8.13;3.78;;;12.70;99.90;;;;;;4997433;28;20041;-66
2022/08/28 01:19:34;;;;;;;9.52;3.67;;;12.70;99.90;;;;;;4994899;28;20038;-66
2022/08/28 01:22:14;;;;;;;8.23;3.95;;;12.60;99.90;;;;;;5012719;28;20084;-66
2022/08/28 01:24:46;;;;;;;10.18;3.92;;;12.60;99.90;;;;;;5011316;28;20060;-66
2022/08/28 01:27:12;;;;;;;7.53;3.80;;;12.60;99.90;;;;;;4995038;28;20386;-66
2022/08/28 01:29:38;;;;;;;11.57;4.57;;;12.60;99.90;;;;;;5011098;28;20065;-67
2022/08/28 01:32:04;;;;;;;8.88;3.70;;;12.60;99.90;;;;;;5012930;28;20046;-67
2022/08/28 01:34:30;;;;;;;10.10;4.20;;;12.60;99.90;;;;;;5012070;28;20116;-66
2022/08/28 01:36:57;;;;;;;9.35;3.67;;;12.60;99.90;;;;;;5006031;28;20562;-66
2022/08/28 01:39:23;;;;;;;10.27;4.00;;;12.60;99.90;;;;;;4993442;28;20045;-66
2022/08/28 01:41:51;;;;;;;7.07;2.97;;;12.60;99.90;;;;;;4978496;28;20470;-66
2022/08/28 01:44:22;;;;;;;8.82;3.70;;;12.50;99.90;;;;;;4993962;28;20063;-66
2022/08/28 01:46:49;;;;;;;6.53;3.50;;;12.60;99.90;;;;;;4999882;28;20042;-66
2022/08/28 01:49:15;;;;;;;7.68;3.30;;;12.60;99.90;;;;;;5014896;28;20296;-66
2022/08/28 01:51:41;;;;;;;9.65;3.72;;;12.60;99.90;;;;;;4995760;28;20669;-66
2022/08/28 01:54:10;;;;;;;16.70;4.07;;;12.60;99.90;;;;;;5010240;28;20454;-66
2022/08/28 01:56:37;;;;;;;12.18;5.18;;;12.60;99.90;;;;;;4978095;28;20030;-66
2022/08/28 01:59:06;;;;;;;5.57;3.47;;;12.50;99.90;;;;;;5010987;28;20033;-66
2022/08/28 02:01:32;;;;;;;8.20;3.92;;;12.60;99.90;;;;;;5013987;28;20038;-66
2022/08/28 02:03:59;;;;;;;9.65;3.65;;;12.50;99.90;;;;;;4999823;28;20125;-66
2022/08/28 02:06:27;;;;;;;8.13;3.20;;;12.50;99.90;;;;;;5013184;28;20510;-66
2022/08/28 02:08:54;;;;;;;7.50;3.42;;;12.50;99.90;;;;;;4992778;28;20042;-66
2022/08/28 02:11:24;;;;;;;10.02;3.50;;;12.50;99.90;;;;;;5002950;28;20056;-67
2022/08/28 02:13:52;;;;;;;8.93;3.45;;;12.50;99.90;;;;;;4992507;28;20065;-66
2022/08/28 02:16:19;;;;;;;8.25;3.35;;;12.50;99.90;;;;;;5011003;28;20034;-66
2022/08/28 02:18:45;;;;;;;7.60;3.97;;;12.50;99.90;;;;;;4994625;28;20045;-66
2022/08/28 02:21:12;;;;;;;7.75;3.17;;;12.50;99.90;;;;;;5012255;28;20046;-66
2022/08/28 02:23:39;;;;;;;11.70;3.30;;;12.50;99.90;;;;;;5011458;28;20486;-66
2022/08/28 02:26:09;;;;;;;7.80;3.60;;;12.50;99.90;;;;;;5010805;28;20117;-66
2022/08/28 02:28:36;;;;;;;7.88;3.55;;;12.50;99.90;;;;;;4994936;28;20136;-66
2022/08/28 02:31:04;;;;;;;9.63;3.72;;;12.40;99.90;;;;;;4993137;28;20956;-66
2022/08/28 02:33:30;;;;;;;6.80;3.50;;;12.40;99.90;;;;;;5012373;28;20141;-66
2022/08/28 02:35:59;;;;;;;10.95;3.67;;;12.40;99.90;;;;;;5009066;28;20480;-66
2022/08/28 02:38:25;;;;;;;6.53;3.75;;;12.30;99.90;;;;;;4994041;28;20032;-66
2022/08/28 02:40:56;;;;;;;8.60;3.47;;;12.30;99.90;;;;;;5012249;28;20038;-66
2022/08/28 02:43:24;;;;;;;9.70;3.78;;;12.30;99.90;;;;;;5009422;28;20129;-66
2022/08/28 02:45:50;;;;;;;9.30;3.70;;;12.30;99.90;;;;;;5011688;28;20056;-66
2022/08/28 02:48:16;;;;;;;9.73;4.00;;;12.30;99.90;;;;;;4998936;28;20503;-66
2022/08/28 02:50:42;;;;;;;10.18;4.05;;;12.20;99.90;;;;;;5007307;28;20454;-66
2022/08/28 02:53:10;;;;;;;13.15;4.13;;;12.20;99.90;;;;;;5000730;28;20083;-66
2022/08/28 02:55:39;;;;;;;9.23;3.95;;;12.10;99.90;;;;;;5011698;28;20080;-66
2022/08/28 02:58:05;;;;;;;6.53;3.75;;;12.20;99.90;;;;;;5011183;28;20037;-66
2022/08/28 03:00:31;;;;;;;8.13;3.78;;;12.10;99.90;;;;;;4997202;28;20038;-66
2022/08/28 03:03:00;;;;;;;6.82;3.67;;;12.10;99.90;;;;;;5010579;28;20089;-66
2022/08/28 03:05:26;;;;;;;9.85;4.18;;;12.10;99.90;;;;;;5012537;28;20084;-66
2022/08/28 03:07:54;;;;;;;9.60;3.58;;;12.00;99.90;;;;;;5012184;28;20029;-66
2022/08/28 03:10:23;;;;;;;7.30;3.67;;;12.00;99.90;;;;;;4997111;28;20042;-66
2022/08/28 03:12:52;;;;;;;11.82;3.70;;;12.00;99.90;;;;;;5008475;28;20128;-66
2022/08/28 03:15:19;;;;;;;7.55;3.08;;;12.00;99.90;;;;;;5015483;28;20499;-66
2022/08/28 03:17:44;;;;;;;10.25;3.40;;;11.90;99.90;;;;;;4992919;28;20458;-66
2022/08/28 03:20:15;;;;;;;11.60;3.70;;;12.00;99.90;;;;;;5010594;28;20143;-66
2022/08/28 03:25:25;;;;;;;9.85;3.40;;;12.00;99.90;;;;;;5008855;28;20045;-66
2022/08/28 03:27:52;;;;;;;6.40;3.15;;;11.90;99.90;;;;;;4993453;28;20034;-67
2022/08/28 03:30:19;;;;;;;8.85;3.85;;;12.00;99.90;;;;;;5010684;28;20061;-66
2022/08/28 03:32:45;;;;;;;8.43;3.33;;;11.90;99.90;;;;;;4995121;28;20076;-66
2022/08/28 03:35:11;;;;;;;10.05;3.70;;;11.90;99.90;;;;;;5009686;28;20038;-66
2022/08/28 03:37:37;;;;;;;11.10;3.63;;;11.90;99.90;;;;;;5009180;28;20052;-66
2022/08/28 03:40:05;;;;;;;10.82;3.28;;;12.00;99.90;;;;;;4990613;28;20395;-66
2022/08/28 03:42:32;;;;;;;8.27;3.17;;;11.90;99.90;;;;;;4993756;28;20128;-66
2022/08/28 03:44:57;;;;;;;11.80;3.60;;;12.00;99.90;;;;;;5007129;28;20034;-66
2022/08/28 03:47:23;;;;;;;6.90;3.45;;;12.00;99.90;;;;;;4992210;28;20519;-66
2022/08/28 03:49:58;;;;;;;7.93;3.50;;;12.00;99.90;;;;;;4997789;28;20087;-66
2022/08/28 03:52:24;;;;;;;8.02;3.50;;;12.00;99.90;;;;;;5010473;28;20399;-66
2022/08/28 03:54:53;;;;;;;11.70;3.60;;;12.00;99.90;;;;;;5001102;28;20045;-66
2022/08/28 03:57:21;;;;;;;5.13;3.50;;;12.00;99.90;;;;;;5006785;28;20055;-66
2022/08/28 03:59:48;;;;;;;10.07;4.00;;;12.00;99.90;;;;;;5018111;28;20045;-66
2022/08/28 04:02:17;;;;;;;11.35;3.63;;;11.90;99.90;;;;;;4994296;28;20411;-66
2022/08/28 04:04:44;;;;;;;8.00;3.50;;;11.90;99.90;;;;;;5014765;28;20045;-66
2022/08/28 04:07:11;;;;;;;8.45;4.10;;;11.90;99.90;;;;;;5013232;28;20037;-66
2022/08/28 04:09:37;;;;;;;10.77;3.40;;;11.90;99.90;;;;;;5010661;28;20407;-66
2022/08/28 04:12:03;;;;;;;8.07;3.60;;;11.90;99.90;;;;;;4999741;28;20034;-66
2022/08/28 04:14:28;;;;;;;9.32;3.22;;;11.90;99.90;;;;;;5012492;28;20042;-66
2022/08/28 04:16:54;;;;;;;9.07;3.72;;;11.90;99.90;;;;;;5015453;28;20042;-66
2022/08/28 04:19:20;;;;;;;7.60;3.50;;;11.80;99.90;;;;;;5013826;28;20137;-66
2022/08/28 04:21:46;;;;;;;8.80;3.30;;;11.90;99.90;;;;;;5012744;28;20503;-66
2022/08/28 04:24:12;;;;;;;8.40;3.35;;;11.80;99.90;;;;;;5010714;28;20418;-66
2022/08/28 04:26:38;;;;;;;7.40;3.42;;;11.80;99.90;;;;;;4990231;28;20525;-67
2022/08/28 04:29:05;;;;;;;8.95;3.90;;;11.80;99.90;;;;;;4993739;28;20045;-66
2022/08/28 04:31:32;;;;;;;6.97;3.50;;;11.80;99.90;;;;;;4989623;28;20060;-66
2022/08/28 04:34:02;;;;;;;16.30;3.95;;;11.90;99.90;;;;;;5008634;28;20049;-66
2022/08/28 04:36:28;;;;;;;7.38;3.30;;;11.80;99.90;;;;;;5008735;28;20522;-66
2022/08/28 04:38:56;;;;;;;8.02;3.55;;;11.70;99.90;;;;;;5008460;28;20048;-66
2022/08/28 04:41:22;;;;;;;9.35;3.13;;;11.30;99.90;;;;;;5009055;28;20372;-66
2022/08/28 04:43:49;;;;;;;7.82;3.70;;;11.70;99.90;;;;;;5009612;28;20037;-67
2022/08/28 04:46:18;;;;;;;8.18;2.97;;;11.70;99.90;;;;;;5009683;28;20514;-66
2022/08/28 04:48:43;;;;;;;6.20;3.30;;;11.70;99.90;;;;;;5009363;28;20042;-66
2022/08/28 04:51:11;;;;;;;5.97;3.03;;;11.70;99.90;;;;;;5007886;28;20038;-66
2022/08/28 04:53:38;;;;;;;8.30;3.40;;;11.70;99.90;;;;;;4996225;28;20125;-66
2022/08/28 04:56:06;;;;;;;4.53;3.10;;;11.70;99.90;;;;;;5009622;28;20025;-66
2022/08/28 04:58:33;;;;;;;7.07;3.20;;;11.70;99.90;;;;;;4990504;28;20045;-66
2022/08/28 05:01:05;;;;;;;9.02;3.20;;;11.70;99.90;;;;;;4991244;28;20041;-66
2022/08/28 05:03:31;;;;;;;6.05;3.22;;;11.70;99.90;;;;;;4995568;28;20041;-66
2022/08/28 05:05:57;;;;;;;7.63;3.10;;;11.70;99.90;;;;;;5008829;28;20037;-66
2022/08/28 05:08:26;;;;;;;6.68;3.40;;;11.70;99.90;;;;;;5012597;28;20049;-65
2022/08/28 05:10:53;;;;;;;6.35;3.00;;;11.80;99.90;;;;;;4991620;28;20060;-66
2022/08/28 05:13:20;;;;;;;5.20;3.40;;;11.80;99.90;;;;;;5007947;28;20112;-66
2022/08/28 05:15:48;;;;;;;8.13;3.92;;;11.80;99.90;;;;;;4991274;28;20475;-66
2022/08/28 05:18:16;;;;;;;8.65;3.47;;;11.80;99.90;;;;;;5008529;28;20049;-66
2022/08/28 05:20:44;;;;;;;7.72;2.97;;;11.80;99.90;;;;;;4974025;28;20406;-66
2022/08/28 05:23:11;;;;;;;8.70;3.25;;;11.80;99.90;;;;;;5012092;28;20096;-66
2022/08/28 05:25:43;;;;;;;8.10;2.90;;;11.80;99.90;;;;;;5008296;28;20044;-66
2022/08/28 05:28:10;;;;;;;6.45;2.80;;;11.80;99.90;;;;;;5010103;28;20053;-66
2022/08/28 05:30:37;;;;;;;9.55;3.65;;;11.90;99.90;;;;;;5011220;28;20052;-66
2022/08/28 05:33:03;;;;;;;5.72;3.00;;;12.00;99.90;;;;;;5008194;28;20054;-66
2022/08/28 05:35:33;;;;;;;6.32;3.25;;;12.00;99.90;;;;;;4991824;28;20061;-66
2022/08/28 05:37:59;;;;;;;7.38;3.08;;;12.10;99.90;;;;;;4996746;28;20068;-65
2022/08/28 05:40:24;;;;;;;8.98;3.15;;;12.20;99.90;;;;;;5009913;28;20708;-66
2022/08/28 05:42:51;;;;;;;9.32;3.00;;;12.30;99.90;;;;;;4993131;28;20045;-66
2022/08/28 05:45:17;;;;;;;10.05;3.65;;;12.30;99.90;;;;;;5011239;28;20777;-65
2022/08/28 05:47:43;;;;;;;9.18;4.00;;;12.30;99.90;;;;;;5006469;28;20038;-66
2022/08/28 05:50:12;;;;;;;6.50;3.35;;;12.30;99.90;;;;;;5007294;28;20041;-66
2022/08/28 05:52:39;;;;;;;8.75;3.20;;;12.40;99.90;;;;;;4991890;28;20085;-66
2022/08/28 05:55:06;;;;;;;8.90;3.47;;;12.40;99.90;;;;;;4991537;28;20046;-66
2022/08/28 05:57:32;;;;;;;10.38;3.75;;;12.40;99.90;;;;;;5007291;28;20113;-66
2022/08/28 05:59:58;;;;;;;11.32;3.50;;;12.50;99.90;;;;;;5009607;28;20395;-66
2022/08/28 06:02:25;;;;;;;5.82;3.25;;;12.50;99.90;;;;;;4990708;28;20033;-66
2022/08/28 06:04:52;;;;;;;7.50;3.75;;;12.50;99.90;;;;;;4972561;28;20033;-66
2022/08/28 06:07:18;;;;;;;7.82;3.22;;;12.60;99.90;;;;;;5005246;28;20117;-66
2022/08/28 06:09:44;;;;;;;6.88;3.05;;;12.70;99.90;;;;;;5008087;28;20136;-66
2022/08/28 06:12:11;;;;;;;7.13;3.00;;;12.70;99.90;;;;;;5006607;28;20975;-66
2022/08/28 06:14:37;;;;;;;8.40;3.20;;;12.70;99.90;;;;;;5010333;28;20040;-66
2022/08/28 06:17:04;;;;;;;7.35;3.53;;;12.80;99.90;;;;;;5007928;28;20049;-66
2022/08/28 06:19:32;;;;;;;6.00;2.65;;;12.90;99.90;;;;;;4992243;28;20116;-66
2022/08/28 06:22:00;;;;;;;8.75;3.65;;;13.00;99.90;;;;;;5007446;28;20171;-66
2022/08/28 06:24:28;;;;;;;6.18;3.08;;;13.00;99.90;;;;;;5008072;28;20044;-66
2022/08/28 06:26:55;;;;;;;7.65;3.10;;;13.10;99.90;;;;;;5006348;28;20041;-66
2022/08/28 06:29:21;;;;;;;9.20;3.30;;;13.10;99.90;;;;;;5006971;28;20526;-67
2022/08/28 06:31:51;;;;;;;11.48;3.58;;;13.20;99.90;;;;;;4971722;28;20049;-66
2022/08/28 06:34:17;;;;;;;13.95;3.35;;;13.20;99.90;;;;;;5007181;28;20499;-66
2022/08/28 06:36:43;;;;;;;6.55;2.90;;;13.30;99.90;;;;;;4974554;28;20046;-66
2022/08/28 06:39:12;;;;;;;8.35;3.30;;;13.40;99.90;;;;;;5011732;28;20044;-66
2022/08/28 06:41:41;;;;;;;7.30;2.78;;;13.50;99.90;;;;;;5006806;28;20038;-66
2022/08/28 06:44:09;;;;;;;6.00;3.17;;;13.50;99.90;;;;;;5010197;28;20034;-66
2022/08/28 06:46:35;;;;;;;8.43;2.97;;;13.60;99.90;;;;;;4972624;28;21478;-66
2022/08/28 06:49:03;;;;;;;6.68;3.25;;;13.70;99.90;;;;;;4992741;28;20052;-66
2022/08/28 06:51:28;;;;;;;10.82;3.35;;;13.70;99.90;;;;;;5005834;28;20045;-66
2022/08/28 06:53:55;;;;;;;7.18;3.20;;;13.80;99.90;;;;;;5006134;28;20080;-66
2022/08/28 06:56:21;;;;;;;8.13;3.17;;;13.90;99.90;;;;;;4990729;28;20153;-66
2022/08/28 06:58:48;;;;;;;10.70;2.92;;;14.00;99.90;;;;;;4973670;28;20156;-66
2022/08/28 07:01:17;;;;;;;7.45;3.35;;;14.10;99.90;;;;;;4990924;28;20048;-66
2022/08/28 07:03:44;;;;;;;7.20;2.78;;;14.30;99.90;;;;;;5005124;28;20114;-66
2022/08/28 07:06:12;;;;;;;9.57;2.72;;;14.50;99.90;;;;;;4988096;28;20401;-66
2022/08/28 07:08:41;;;;;;;10.18;2.90;;;14.60;99.90;;;;;;4988134;28;20045;-67
2022/08/28 07:11:16;;;;;;;4.43;2.10;;;14.80;99.90;;;;;;5007346;28;20049;-66
2022/08/28 07:13:43;;;;;;;5.93;2.50;;;14.90;99.90;;;;;;5004023;28;20446;-66
2022/08/28 07:16:11;;;;;;;8.38;2.40;;;15.10;99.90;;;;;;4988355;28;20687;-66
2022/08/28 07:18:38;;;;;;;5.18;2.67;;;15.30;99.90;;;;;;4987964;28;20060;-66
2022/08/28 07:21:04;;;;;;;6.63;2.83;;;15.40;99.90;;;;;;5004958;28;21266;-66
2022/08/28 07:23:32;;;;;;;3.40;2.10;;;15.60;99.90;;;;;;5009710;28;20045;-67
2022/08/28 07:26:02;;;;;;;5.47;2.20;;;15.80;99.90;;;;;;4990262;28;20054;-66
2022/08/28 07:28:28;;;;;;;9.32;2.47;;;16.00;99.90;;;;;;5007533;28;20120;-66
2022/08/28 07:31:22;;;;;;;9.75;2.20;;;16.20;99.90;;;;;;4990339;28;20726;-66
2022/08/28 07:33:48;;;;;;;5.20;2.33;;;16.40;99.90;;;;;;5000809;28;20050;-66
2022/08/28 07:36:17;;;;;;;5.95;2.10;;;16.60;99.90;;;;;;5011217;28;20742;-67
2022/08/28 07:38:43;;;;;;;6.40;2.60;;;16.80;99.90;;;;;;5004511;28;20122;-66
2022/08/28 07:41:18;;;;;;;5.90;2.05;;;17.00;99.90;;;;;;5003206;28;20026;-66
2022/08/28 07:46:28;;;;;;;13.13;2.88;;;17.40;99.90;;;;;;5006310;28;20046;-68
2022/08/28 07:48:57;;;;;;;11.68;2.33;;;17.60;99.90;;;;;;5004048;28;20384;-68
2022/08/28 07:51:24;;;;;;;7.28;2.50;;;17.70;99.90;;;;;;4989886;28;20160;-68
2022/08/28 07:53:51;;;;;;;5.35;2.72;;;17.90;99.90;;;;;;4986040;28;20042;-68
2022/08/28 07:56:17;;;;;;;9.93;2.50;;;18.00;99.90;;;;;;4994677;28;20041;-68
2022/08/28 07:58:43;;;;;;;5.55;1.98;;;18.20;99.90;;;;;;5010251;28;20049;-68
2022/08/28 08:01:08;;;;;;;10.15;2.20;;;18.30;99.90;;;;;;5014350;28;20518;-68
2022/08/28 08:03:34;;;;;;;6.93;1.90;;;18.40;99.90;;;;;;5006586;28;20046;-68
2022/08/28 08:06:02;;;;;;;5.88;2.08;;;18.50;99.90;;;;;;5004115;28;20479;-68
2022/08/28 08:08:29;;;;;;;5.15;2.00;;;18.50;99.90;;;;;;5006640;28;20044;-68
2022/08/28 08:10:59;;;;;;;6.15;2.35;;;18.70;99.90;;;;;;4991086;28;20041;-68
2022/08/28 08:13:25;;;;;;;4.88;2.10;;;18.80;99.90;;;;;;5008577;28;20038;-68
2022/08/28 08:15:51;;;;;;;3.40;1.88;;;19.00;99.90;;;;;;5002858;28;20034;-68
2022/08/28 08:18:17;;;;;;;7.28;2.28;;;19.20;99.90;;;;;;4977081;28;20049;-68
2022/08/28 08:20:43;;;;;;;6.95;2.15;;;19.30;99.90;;;;;;5012386;28;20037;-69
2022/08/28 08:23:09;;;;;;;7.28;2.28;;;19.40;99.90;;;;;;4989381;28;20033;-69
2022/08/28 08:25:35;;;;;;;9.27;2.03;;;19.30;99.90;;;;;;4989756;28;20538;-69
2022/08/28 08:28:02;;;;;;;4.57;2.22;;;19.10;99.90;;;;;;4975704;28;20048;-69
2022/08/28 08:30:28;;;;;;;6.47;2.20;;;19.10;99.90;;;;;;4989993;28;20038;-69
2022/08/28 08:32:54;;;;;;;6.43;2.08;;;19.00;99.90;;;;;;4986812;28;20396;-68
2022/08/28 08:35:20;;;;;;;7.30;2.33;;;18.70;99.90;;;;;;5005635;28;20046;-69
2022/08/28 08:37:46;;;;;;;10.05;2.15;;;18.60;99.90;;;;;;5005212;28;20034;-68
2022/08/28 08:40:17;;;;;;;9.60;2.22;;;18.40;99.90;;;;;;4987765;28;20034;-68
2022/08/28 08:42:47;;;;;;;7.53;1.90;;;18.40;99.90;;;;;;5008391;28;20120;-68
2022/08/28 08:45:17;;;;;;;7.70;2.10;;;18.60;99.90;;;;;;5009453;28;20042;-69
2022/08/28 08:47:50;;;;;;;8.43;1.83;;;18.90;99.90;;;;;;4974659;28;20132;-69
2022/08/28 08:50:19;;;;;;;7.75;2.10;;;19.20;99.90;;;;;;4991023;28;20065;-68
2022/08/28 08:53:42;;;;;;;7.30;2.13;;;19.50;99.90;;;;;;5010199;28;20034;-68
2022/08/28 08:56:14;;;;;;;7.75;1.92;;;19.80;99.90;;;;;;4956937;28;20486;-68
2022/08/28 08:58:46;;;;;;;6.78;2.20;;;20.00;99.90;;;;;;4929276;28;20038;-68
2022/08/28 09:01:30;;;;;;;;;;;20.10;99.90;;;;;;4979966;28;20054;-68
2022/08/28 09:04:13;;;;;;;7.68;2.10;;;20.30;99.60;;;;;;5008441;28;19925;-68
2022/08/28 09:06:58;;;;;;;10.75;3.03;;;20.40;98.90;;;;;;5007388;28;20037;-69
2022/08/28 09:09:26;;;;;;;5.63;1.88;;;20.70;99.40;;;;;;5010510;28;20045;-68
2022/08/28 09:12:23;;;;;;;3.88;2.15;;;20.70;98.30;;;;;;5010381;28;20121;-68
2022/08/28 09:15:03;;;;;;;3.67;1.67;;;20.50;96.20;;;;;;4984952;28;20057;-68
2022/08/28 09:17:33;;;;;;;4.80;2.25;;;20.50;97.30;;;;;;5008105;28;20091;-68
2022/08/28 09:19:59;;;;;;;4.85;2.00;;;20.60;96.10;;;;;;5007538;28;20042;-68
2022/08/28 09:22:25;;;;;;;5.25;2.10;;;20.70;96.70;;;;;;4991111;28;20466;-68
2022/08/28 09:24:51;;;;;;;7.43;2.30;;;20.50;96.20;;;;;;5008915;28;20042;-68
2022/08/28 09:27:24;;;;;;;5.30;2.15;;;20.40;96.70;;;;;;4974301;28;20048;-68
2022/08/28 09:29:58;;;;;;;4.25;1.90;;;20.40;96.50;;;;;;4976112;28;20064;-69
2022/08/28 09:32:37;;;;;;;4.82;2.40;;;20.50;96.40;;;;;;5008172;28;20042;-68
2022/08/28 09:35:06;;;;;;;5.68;2.28;;;20.60;95.80;;;;;;5011929;28;20072;-68
2022/08/28 09:37:34;;;;;;;5.57;1.90;;;20.40;96.20;;;;;;5012043;28;20444;-68
2022/08/28 09:40:16;;;;;;;8.80;2.40;;;20.40;96.30;;;;;;5022409;28;20077;-66
2022/08/28 09:43:30;;;;;;;4.57;2.00;;;20.30;95.90;;;;;;5013200;28;20037;-66
2022/08/28 09:46:04;;;;;;;5.45;1.85;;;20.70;96.00;;;;;;5026188;28;20041;-66
2022/08/28 09:48:51;;;;;;;5.80;1.85;;;21.00;95.60;;;;;;5011494;28;20040;-66
2022/08/28 09:51:20;;;;;;;7.20;1.95;;;20.90;93.80;;;;;;5010647;28;20403;-66
2022/08/28 09:53:52;;;;;;;4.45;1.92;;;20.90;94.50;;;;;;5012664;28;20041;-66
2022/08/28 09:56:39;;;;;;;6.57;2.30;;;20.90;94.50;;;;;;5015242;28;20054;-66
2022/08/28 09:59:07;;;;;;;6.53;2.03;;;21.00;94.10;;;;;;5012656;28;20112;-66
2022/08/28 10:01:41;;;;;;;4.05;2.10;;;21.40;94.70;;;;;;5005214;28;20050;-66
2022/08/28 10:04:46;;;;;;;9.13;3.20;;;21.50;94.80;;;;;;4991645;28;20038;-65
2022/08/28 10:07:26;;;;;;;6.63;2.10;;;21.70;94.80;;;;;;5001675;28;20052;-66
2022/08/28 10:10:20;;;;;;;5.50;2.50;;;21.90;94.80;;;;;;5009818;28;20116;-66
2022/08/28 10:13:05;;;;;;;4.63;1.98;;;22.00;94.60;;;;;;5007963;28;20041;-66
2022/08/28 10:15:36;;;;;;;4.30;1.80;;;22.10;94.30;;;;;;4997536;28;20053;-67
2022/08/28 10:18:20;;;;;;;7.65;2.22;;;22.30;94.70;;;;;;4996030;28;20156;-66
2022/08/28 10:21:11;;;;;;;4.53;1.90;;;22.30;94.50;;;;;;5015384;28;20045;-66
2022/08/28 10:24:01;;;;;;;6.72;1.92;;;22.10;92.20;;;;;;5013567;28;20069;-66
2022/08/28 10:27:00;;;;;;;5.47;2.22;;;21.90;91.70;;;;;;5004259;28;20046;-66
2022/08/28 10:29:41;;;;;;;5.18;1.92;;;21.60;92.10;;;;;;5013770;28;20048;-66
2022/08/28 10:32:14;;;;;;;5.22;2.22;;;21.60;91.90;;;;;;5012681;28;20390;-66
2022/08/28 10:34:46;;;;;;;10.65;2.50;;;21.70;92.10;;;;;;5011708;28;20155;-68
2022/08/28 10:37:22;;;;;;;5.85;2.03;;;21.90;92.20;;;;;;5015628;28;20065;-66
2022/08/28 10:40:01;;;;;;;6.57;2.22;;;22.20;92.70;;;;;;5009318;28;20038;-66
2022/08/28 10:42:44;;;;;;;4.28;2.22;;;22.50;91.20;;;;;;5006209;28;20089;-66
2022/08/28 10:45:15;;;;;;;3.55;2.03;;;22.50;91.00;;;;;;5009313;28;20043;-66
2022/08/28 10:47:46;;;;;;;4.18;2.00;;;22.20;90.90;;;;;;5002733;28;20108;-66
2022/08/28 10:50:22;;;;;;;5.63;1.97;;;22.10;91.40;;;;;;5010729;28;20517;-67
2022/08/28 10:52:56;;;;;;;6.32;2.28;;;22.10;91.00;;;;;;5014124;28;20332;-67
2022/08/28 10:55:44;;;;;;;6.38;1.90;;;22.20;91.30;;;;;;5008828;28;20042;-66
2022/08/28 10:58:11;;;;;;;6.47;2.30;;;22.30;91.80;;;;;;4972805;28;20530;-66
2022/08/28 11:00:41;;;;;;;3.80;2.10;;;22.50;91.90;;;;;;5005024;28;20045;-66
2022/08/28 11:03:13;;;;;;;4.95;2.35;;;22.70;92.30;;;;;;5003935;28;20430;-66
2022/08/28 11:05:47;;;;;;;6.05;1.90;;;22.80;92.00;;;;;;5003749;28;20546;-66
2022/08/28 11:08:26;;;;;;;4.93;2.08;;;22.90;91.20;;;;;;5015733;28;20043;-66
2022/08/28 11:10:57;;;;;;;6.72;2.40;;;22.40;89.40;;;;;;5012489;28;20384;-66
2022/08/28 11:13:58;;;;;;;3.95;1.88;;;22.00;89.70;;;;;;5010133;28;20041;-65
2022/08/28 11:16:27;;;;;;;4.20;2.00;;;22.10;90.40;;;;;;4992994;28;20041;-66
2022/08/28 11:19:18;;;;;;;8.32;2.70;;;22.30;90.70;;;;;;5000880;28;20033;-66
2022/08/28 11:21:49;;;;;;;5.40;2.17;;;22.50;90.70;;;;;;5011886;28;20442;-66
2022/08/28 11:24:29;;;;;;;6.00;1.70;;;22.80;86.80;;;;;;5010182;28;20038;-66
2022/08/28 11:27:25;;;;;;;6.57;1.98;;;22.80;88.70;;;;;;5005668;28;20077;-66
2022/08/28 11:30:15;;;;;;;5.65;2.45;;;22.50;88.30;;;;;;5002924;28;20706;-66
2022/08/28 11:32:50;;;;;;;3.58;2.10;;;22.30;89.20;;;;;;5012256;28;20072;-65
2022/08/28 11:35:37;;;;;;;7.00;2.47;;;21.80;89.70;;;;;;5009516;28;20041;-65
2022/08/28 11:38:03;;;;;;;4.28;1.60;;;21.50;90.00;;;;;;4989058;28;20048;-65
2022/08/28 11:40:30;;;;;;;4.80;2.50;;;21.40;90.10;;;;;;5009136;28;20843;-65
2022/08/28 11:43:13;;;;;;;5.28;1.88;;;21.60;90.10;;;;;;5014988;28;20104;-65
2022/08/28 11:45:59;;;;;;;5.00;2.03;;;21.90;88.90;;;;;;5008439;28;20111;-66
2022/08/28 11:48:35;;;;;;;6.50;2.00;;;21.90;89.50;;;;;;4994979;28;20053;-65
2022/08/28 11:51:09;;;;;;;7.18;2.20;;;22.10;90.20;;;;;;5010318;28;20050;-66
2022/08/28 11:54:03;;;;;;;10.40;1.98;;;22.30;90.30;;;;;;5013013;28;20049;-68
2022/08/28 11:56:43;;;;;;;4.32;1.77;;;22.40;86.70;;;;;;5008146;28;20447;-67
2022/08/28 11:59:34;;;;;;;6.18;1.80;;;22.10;85.80;;;;;;4996490;28;20109;-67
2022/08/28 12:02:38;;;;;;;3.47;1.80;;;21.80;84.50;;;;;;4988400;28;20061;-66
2022/08/28 12:05:29;;;;;;;3.85;2.00;;;21.50;86.40;;;;;;5009480;28;20058;-67
2022/08/28 12:07:56;;;;;;;3.83;1.88;;;21.80;86.40;;;;;;4965924;28;20077;-66
2022/08/28 12:10:21;;;;;;;3.40;2.58;;;22.00;87.20;;;;;;5014081;28;20069;-67
2022/08/28 12:12:48;;;;;;;4.43;1.80;;;22.30;86.20;;;;;;4997623;28;20092;-67
2022/08/28 12:15:26;;;;;;;3.03;1.77;;;22.50;84.60;;;;;;4989976;28;20047;-67
2022/08/28 12:18:14;;;;;;;3.38;2.00;;;22.60;85.10;;;;;;4987119;28;20037;-67
2022/08/28 12:21:00;;;;;;;3.17;1.70;;;22.70;84.70;;;;;;5016224;28;20037;-66
2022/08/28 12:23:36;;;;;;;3.13;1.90;;;22.50;83.50;;;;;;4973273;28;20172;-67
2022/08/28 12:26:20;;;;;;;4.22;1.83;;;22.00;84.30;;;;;;5002590;28;20189;-67
2022/08/28 12:29:05;;;;;;;4.68;1.70;;;21.70;85.10;;;;;;5013725;28;20465;-67
2022/08/28 12:35:08;;;;;;;5.60;2.17;;;22.20;84.60;;;;;;5011873;28;20137;-67
2022/08/28 12:37:41;;;;;;;3.65;1.95;;;22.30;84.20;;;;;;4975599;28;20037;-67
2022/08/28 12:40:15;;;;;;;6.65;2.03;;;22.10;84.10;;;;;;5014318;28;20041;-67
2022/08/28 12:43:01;;;;;;;6.65;1.88;;;21.70;83.80;;;;;;5007020;28;20042;-66
2022/08/28 12:45:38;;;;;;;7.50;2.03;;;21.80;85.80;;;;;;5013579;28;20104;-67
2022/08/28 12:48:23;;;;;;;4.05;1.80;;;22.10;85.40;;;;;;5003231;28;20042;-67
2022/08/28 12:50:57;;;;;;;5.13;2.08;;;22.10;84.10;;;;;;5013499;28;20045;-68
2022/08/28 12:53:22;;;;;;;4.82;1.80;;;21.90;84.40;;;;;;4991647;28;20045;-67
2022/08/28 12:55:48;;;;;;;6.07;1.95;;;21.90;84.90;;;;;;4961310;28;20104;-66
2022/08/28 12:58:32;;;;;;;4.30;2.00;;;22.00;85.10;;;;;;4989875;28;20068;-67
2022/08/28 13:01:22;;;;;;;4.32;1.90;;;22.20;85.10;;;;;;5004456;28;20068;-67
2022/08/28 13:04:00;;;;;;;4.38;2.10;;;22.40;84.60;;;;;;4978930;28;20050;-67
2022/08/28 13:06:32;;;;;;;5.07;2.25;;;22.30;84.30;;;;;;4989379;28;20509;-67
2022/08/28 13:09:17;;;;;;;4.82;2.10;;;22.00;83.50;;;;;;5003866;28;20033;-67
2022/08/28 13:11:49;;;;;;;6.30;2.63;;;21.70;83.40;;;;;;5008180;28;20578;-67
2022/08/28 13:14:37;;;;;;;4.28;2.33;;;21.40;83.40;;;;;;4993315;28;20045;-66
2022/08/28 13:17:03;;;;;;;5.90;2.08;;;21.40;84.60;;;;;;5003077;28;20495;-68